createdAt,value
2019-05-25T00:02:53.257Z,96471.70
2019-05-25T00:18:01.994Z,96467.75
2019-05-25T00:33:08.991Z,96471.57
2019-05-25T00:48:17.279Z,96458.01
2019-05-25T01:03:24.830Z,96455.70
2019-05-25T01:18:31.888Z,96456.41
2019-05-25T01:33:39.351Z,96464.30
2019-05-25T01:48:48.281Z,96465.36
2019-05-25T02:03:55.918Z,96457.78
2019-05-25T02:19:03.361Z,96461.66
2019-05-25T02:34:10.550Z,96472.56
2019-05-25T02:49:16.593Z,96474.58
2019-05-25T03:04:25.840Z,96485.77
2019-05-25T03:19:32.846Z,96490.77
2019-05-25T03:34:40.777Z,96486.97
2019-05-25T03:49:48.613Z,96505.77
2019-05-25T04:04:55.265Z,96505.77
2019-05-25T04:20:02.240Z,96520.61
2019-05-25T04:35:10.732Z,96517.70
2019-05-25T04:50:17.986Z,96521.25
2019-05-25T05:05:25.708Z,96530.64
2019-05-25T05:20:34.152Z,96541.27
2019-05-25T05:35:41.447Z,96549.99
2019-05-25T05:50:50.701Z,96550.09
2019-05-25T06:05:59.148Z,96558.45
2019-05-25T06:21:06.578Z,96554.31
2019-05-25T06:36:15.286Z,96555.16
2019-05-25T06:51:23.138Z,96559.77
2019-05-25T07:06:30.453Z,96538.38
2019-05-25T07:21:37.280Z,96554.99
2019-05-25T07:36:44.314Z,96558.45
2019-05-25T07:51:52.390Z,96558.88
2019-05-25T08:06:59.055Z,96557.85
2019-05-25T08:22:07.672Z,96554.95
2019-05-25T08:37:16.139Z,96554.03
2019-05-25T08:52:23.623Z,96550.70
2019-05-25T09:07:31.562Z,96557.34
2019-05-25T09:22:39.124Z,96559.28
2019-05-25T09:37:48.092Z,96555.81
2019-05-25T09:52:54.732Z,96558.98
2019-05-25T10:08:02.401Z,96570.29
2019-05-25T10:23:10.850Z,96565.13
2019-05-25T10:38:18.773Z,96566.80
2019-05-25T10:53:27.418Z,96561.06
2019-05-25T11:08:34.557Z,96555.45
2019-05-25T11:23:41.622Z,96549.10
2019-05-25T11:38:48.573Z,96534.91
2019-05-25T11:53:56.093Z,96538.80
2019-05-25T12:09:03.336Z,96543.52
2019-05-25T12:24:10.649Z,96539.34
2019-05-25T12:39:17.782Z,96538.14
2019-05-25T12:54:27.486Z,96534.89
2019-05-25T13:09:34.507Z,96527.82
2019-05-25T13:24:41.404Z,96512.43
2019-05-25T13:39:50.191Z,96510.70
2019-05-25T13:54:58.204Z,96516.62
2019-05-25T14:10:07.882Z,96494.66
2019-05-25T14:25:15.678Z,96507.72
2019-05-25T14:40:22.800Z,96492.47
2019-05-25T14:55:30.421Z,96489.90
2019-05-25T15:10:37.296Z,96475.19
2019-05-25T15:25:44.193Z,96472.37
2019-05-25T15:40:52.051Z,96475.98
2019-05-25T15:56:00.686Z,96474.98
2019-05-25T16:11:09.557Z,96471.48
2019-05-25T16:26:19.304Z,96474.73
2019-05-25T16:41:26.498Z,96474.22
2019-05-25T16:56:35.159Z,96474.78
2019-05-25T17:11:42.869Z,96489.86
2019-05-25T17:26:50.017Z,96490.27
2019-05-25T17:41:57.156Z,96504.67
2019-05-25T17:57:05.318Z,96502.75
2019-05-25T18:12:14.099Z,96516.27
2019-05-25T18:27:21.211Z,96540.52
2019-05-25T18:42:30.667Z,96544.12
2019-05-25T18:57:39.823Z,96566.25
2019-05-25T19:12:48.137Z,96573.14
2019-05-25T19:27:55.772Z,96576.75
2019-05-25T19:43:04.593Z,96585.55
2019-05-25T19:58:16.053Z,96601.25
2019-05-25T20:13:23.181Z,96615.44
2019-05-25T20:28:29.211Z,96624.37
2019-05-25T20:43:37.154Z,96632.39
2019-05-25T20:58:46.194Z,96630.75
2019-05-25T21:13:52.934Z,96644.96
2019-05-25T21:29:01.112Z,96654.55
2019-05-25T21:44:08.692Z,96656.66
2019-05-25T21:59:19.119Z,96673.06
2019-05-25T22:14:26.523Z,96681.28
2019-05-25T22:29:33.642Z,96683.06
2019-05-25T22:44:40.607Z,96682.91
2019-05-25T22:59:48.911Z,96688.21
2019-05-25T23:14:55.973Z,96686.75
2019-05-25T23:30:02.983Z,96676.80
2019-05-25T23:45:10.668Z,96675.86
